createdAt,value
2022-08-04T00:00:40.347Z,6.97
2022-08-04T00:03:59.362Z,6.70
2022-08-04T00:06:45.756Z,6.68
2022-08-04T00:09:43.204Z,6.47
2022-08-04T00:12:11.988Z,6.95
2022-08-04T00:14:46.228Z,6.38
2022-08-04T00:17:14.461Z,6.10
2022-08-04T00:22:13.032Z,6.07
2022-08-04T00:24:41.217Z,5.63
2022-08-04T00:29:37.911Z,6.18
2022-08-04T00:32:06.449Z,5.72
2022-08-04T00:34:34.399Z,5.78
2022-08-04T00:37:00.932Z,5.80
2022-08-04T00:39:29.578Z,6.28
2022-08-04T00:42:20.831Z,6.00
2022-08-04T00:44:47.308Z,6.07
2022-08-04T00:47:40.327Z,6.22
2022-08-04T00:50:21.386Z,6.07
2022-08-04T00:53:17.983Z,6.13
2022-08-04T00:55:50.447Z,6.57
2022-08-04T00:58:38.660Z,6.47
2022-08-04T01:01:08.016Z,6.43
2022-08-04T01:04:03.030Z,6.80
2022-08-04T01:06:58.471Z,6.07
2022-08-04T01:10:00.439Z,6.63
2022-08-04T01:12:42.066Z,6.18
2022-08-04T01:16:13.295Z,6.85
2022-08-04T01:19:01.528Z,6.47
2022-08-04T01:21:37.016Z,6.95
2022-08-04T01:24:31.633Z,6.53
2022-08-04T01:27:06.228Z,6.88
2022-08-04T01:29:49.221Z,8.10
2022-08-04T01:32:34.931Z,7.00
2022-08-04T01:35:07.441Z,6.75
2022-08-04T01:38:02.634Z,6.78
2022-08-04T01:40:46.898Z,6.93
2022-08-04T01:43:15.849Z,7.13
2022-08-04T01:45:42.870Z,7.65
2022-08-04T01:48:12.956Z,8.32
2022-08-04T01:50:42.948Z,7.60
2022-08-04T01:53:09.830Z,8.02
2022-08-04T01:55:54.236Z,7.05
2022-08-04T01:58:23.818Z,7.40
2022-08-04T02:00:57.214Z,7.38
2022-08-04T02:03:24.301Z,7.53
2022-08-04T02:06:25.032Z,7.20
2022-08-04T02:09:24.691Z,6.72
2022-08-04T02:12:00.294Z,6.90
2022-08-04T02:14:44.387Z,7.30
2022-08-04T02:17:11.928Z,6.97
2022-08-04T02:20:19.234Z,7.22
2022-08-04T02:22:59.095Z,7.63
2022-08-04T02:25:27.791Z,7.05
2022-08-04T02:28:11.517Z,6.57
2022-08-04T02:30:56.846Z,6.97
2022-08-04T02:33:46.380Z,7.00
2022-08-04T02:36:30.436Z,7.10
2022-08-04T02:39:01.281Z,7.85
2022-08-04T02:41:30.511Z,7.40
2022-08-04T02:44:08.895Z,6.70
2022-08-04T02:46:36.706Z,6.22
2022-08-04T02:49:05.572Z,6.95
2022-08-04T02:51:37.646Z,6.40
2022-08-04T02:54:06.287Z,5.90
2022-08-04T02:56:37.523Z,6.65
2022-08-04T02:59:11.256Z,7.05
2022-08-04T03:01:57.980Z,6.45
2022-08-04T03:04:33.939Z,6.57
2022-08-04T03:07:46.094Z,7.18
2022-08-04T03:10:43.126Z,6.78
2022-08-04T03:13:29.792Z,6.33
2022-08-04T03:16:20.952Z,6.47
2022-08-04T03:18:53.484Z,7.15
2022-08-04T03:21:56.553Z,7.25
2022-08-04T03:24:51.357Z,7.18
2022-08-04T03:27:47.204Z,7.13
2022-08-04T03:30:18.537Z,6.60
2022-08-04T03:33:11.321Z,6.75
2022-08-04T03:36:01.524Z,6.95
2022-08-04T03:38:55.624Z,6.40
2022-08-04T03:41:54.919Z,6.68
2022-08-04T03:44:25.497Z,6.20
2022-08-04T03:47:07.246Z,7.00
2022-08-04T03:49:59.844Z,6.60
2022-08-04T03:53:02.288Z,6.55
2022-08-04T03:55:54.496Z,6.18
2022-08-04T03:58:39.155Z,6.47
2022-08-04T04:01:30.471Z,6.15
2022-08-04T04:05:03.929Z,5.72
2022-08-04T04:07:59.753Z,5.72
2022-08-04T04:10:52.976Z,5.75
2022-08-04T04:13:47.272Z,5.45
2022-08-04T04:16:37.334Z,8.27
2022-08-04T04:19:25.241Z,12.35
2022-08-04T04:22:12.961Z,14.77
2022-08-04T04:25:04.007Z,11.65
2022-08-04T04:28:45.274Z,10.38
2022-08-04T04:31:15.029Z,5.50
2022-08-04T04:33:53.615Z,5.55
2022-08-04T04:36:34.910Z,5.35
2022-08-04T04:39:01.646Z,5.43
2022-08-04T04:41:46.818Z,5.32
2022-08-04T04:44:50.835Z,4.78
2022-08-04T04:48:07.591Z,5.22
2022-08-04T04:50:36.735Z,4.70
2022-08-04T04:53:17.554Z,4.63
2022-08-04T04:55:50.097Z,4.40
2022-08-04T04:58:19.844Z,4.00
2022-08-04T05:01:15.820Z,7.50
2022-08-04T05:04:19.999Z,20.83
2022-08-04T05:07:09.858Z,7.15
2022-08-04T05:09:52.210Z,7.63
2022-08-04T05:14:22.901Z,8.73
2022-08-04T05:15:12.808Z,5.95
2022-08-04T05:17:47.957Z,4.57
2022-08-04T05:20:24.639Z,5.28
2022-08-04T05:22:58.295Z,23.92
2022-08-04T05:25:30.347Z,5.10
2022-08-04T05:28:20.601Z,4.13
2022-08-04T05:30:51.623Z,3.53
2022-08-04T05:33:34.385Z,3.33
2022-08-04T05:36:21.774Z,3.10
2022-08-04T05:38:55.569Z,2.88
2022-08-04T05:41:22.902Z,3.00
2022-08-04T05:43:58.986Z,3.20
2022-08-04T05:46:27.036Z,3.13
2022-08-04T05:48:53.745Z,2.92
2022-08-04T05:51:21.011Z,3.00
2022-08-04T05:53:48.219Z,3.80
2022-08-04T05:56:16.411Z,3.25
2022-08-04T06:01:12.528Z,3.15
2022-08-04T06:03:40.115Z,3.45
2022-08-04T06:06:07.235Z,3.08
2022-08-04T06:08:34.192Z,3.97
2022-08-04T06:11:06.361Z,4.00
2022-08-04T06:13:50.155Z,5.40
2022-08-04T06:16:30.232Z,4.28
2022-08-04T06:20:01.315Z,3.78
2022-08-04T06:21:49.794Z,3.15
2022-08-04T06:24:19.666Z,3.20
2022-08-04T06:26:49.291Z,2.60
2022-08-04T06:29:24.862Z,2.67
2022-08-04T06:32:27.209Z,2.88
2022-08-04T06:34:45.715Z,4.55
2022-08-04T06:37:24.226Z,2.83
2022-08-04T06:40:05.223Z,2.15
2022-08-04T06:42:51.167Z,2.95
2022-08-04T06:45:19.772Z,2.50
2022-08-04T06:47:47.707Z,2.45
2022-08-04T06:51:27.841Z,2.97
2022-08-04T06:55:28.876Z,2.33
2022-08-04T06:58:01.038Z,2.60
2022-08-04T07:00:30.913Z,3.00
2022-08-04T07:02:58.531Z,2.92
2022-08-04T07:05:25.293Z,2.63
2022-08-04T07:07:57.914Z,2.50
2022-08-04T07:10:27.718Z,2.80
2022-08-04T07:12:56.503Z,2.70
2022-08-04T07:15:23.582Z,2.83
2022-08-04T07:17:52.254Z,2.40
2022-08-04T07:20:34.593Z,2.53
2022-08-04T07:23:06.834Z,2.80
2022-08-04T07:26:00.828Z,3.22
2022-08-04T07:28:26.057Z,2.50
2022-08-04T07:30:54.211Z,2.70
2022-08-04T07:33:21.989Z,2.80
2022-08-04T07:36:04.858Z,2.60
2022-08-04T07:38:48.309Z,2.63
2022-08-04T07:41:40.287Z,2.45
2022-08-04T07:44:08.127Z,2.75
2022-08-04T07:46:36.054Z,2.45
2022-08-04T07:49:03.378Z,2.28
2022-08-04T07:51:31.263Z,2.38
2022-08-04T07:54:00.222Z,2.42
2022-08-04T07:56:27.841Z,2.50
2022-08-04T07:58:55.591Z,2.53
2022-08-04T08:01:23.662Z,2.80
2022-08-04T08:06:33.248Z,2.72
2022-08-04T08:09:02.089Z,2.30
2022-08-04T08:12:37.069Z,3.15
2022-08-04T08:14:28.169Z,2.47
2022-08-04T08:16:54.738Z,2.47
2022-08-04T08:19:21.552Z,2.85
2022-08-04T08:21:58.934Z,3.00
2022-08-04T08:24:30.808Z,2.50
2022-08-04T08:26:58.279Z,2.78
2022-08-04T08:29:26.148Z,2.63
2022-08-04T08:31:57.725Z,2.60
2022-08-04T08:34:28.946Z,2.58
2022-08-04T08:37:02.947Z,2.83
2022-08-04T08:39:38.769Z,2.88
2022-08-04T08:42:30.158Z,2.47
2022-08-04T08:45:18.012Z,2.40
2022-08-04T08:48:06.994Z,2.00
2022-08-04T08:51:00.948Z,2.05
2022-08-04T08:53:39.563Z,2.60
2022-08-04T08:56:31.346Z,2.40
2022-08-04T08:59:26.158Z,2.08
2022-08-04T09:02:06.540Z,2.63
2022-08-04T09:04:48.907Z,2.40
2022-08-04T09:07:52.922Z,1.92
2022-08-04T09:10:33.917Z,1.98
2022-08-04T09:13:08.841Z,1.67
2022-08-04T09:16:11.759Z,1.90
2022-08-04T09:18:47.407Z,2.05
2022-08-04T09:21:23.184Z,1.80
2022-08-04T09:23:57.687Z,1.90
2022-08-04T09:26:44.241Z,1.90
2022-08-04T09:29:47.079Z,1.92
2022-08-04T09:32:35.450Z,1.65
2022-08-04T09:35:13.341Z,1.77
2022-08-04T09:37:48.474Z,1.50
2022-08-04T09:41:03.812Z,1.65
2022-08-04T09:44:52.682Z,1.80
2022-08-04T09:47:03.701Z,1.70
2022-08-04T09:49:36.609Z,1.50
2022-08-04T09:52:16.828Z,1.50
2022-08-04T09:55:07.475Z,1.80
2022-08-04T09:57:46.834Z,1.48
2022-08-04T10:00:16.951Z,1.27
2022-08-04T10:02:55.105Z,1.50
2022-08-04T10:05:26.011Z,1.50
2022-08-04T10:07:59.702Z,1.60
2022-08-04T10:10:58.452Z,1.70
2022-08-04T10:13:38.289Z,1.40
2022-08-04T10:16:26.483Z,1.45
2022-08-04T10:19:20.594Z,1.30
2022-08-04T10:22:30.752Z,1.38
2022-08-04T10:25:05.465Z,1.55
2022-08-04T10:28:00.359Z,1.35
2022-08-04T10:30:28.569Z,1.90
2022-08-04T10:33:12.908Z,1.55
2022-08-04T10:35:50.990Z,1.20
2022-08-04T10:38:30.842Z,3.17
2022-08-04T10:41:06.554Z,1.60
2022-08-04T10:43:36.162Z,1.42
2022-08-04T10:46:38.099Z,2.05
2022-08-04T10:49:09.027Z,1.30
2022-08-04T10:51:59.562Z,1.35
2022-08-04T10:54:50.894Z,1.27
2022-08-04T10:57:31.470Z,1.10
2022-08-04T11:00:06.317Z,1.45
2022-08-04T11:02:58.672Z,1.48
2022-08-04T11:05:34.439Z,1.58
2022-08-04T11:08:20.770Z,1.35
2022-08-04T11:10:52.032Z,1.42
2022-08-04T11:13:22.063Z,1.52
2022-08-04T11:15:57.168Z,1.67
2022-08-04T11:21:16.660Z,1.90
2022-08-04T11:23:53.437Z,1.73
2022-08-04T11:26:24.458Z,1.42
2022-08-04T11:29:09.993Z,1.77
2022-08-04T11:31:41.543Z,1.83
2022-08-04T11:34:22.902Z,1.33
2022-08-04T11:37:00.932Z,1.40
2022-08-04T11:39:38.174Z,1.00
2022-08-04T11:42:23.872Z,1.00
2022-08-04T11:44:55.757Z,1.20
2022-08-04T11:47:39.701Z,1.10
2022-08-04T11:50:23.417Z,1.38
2022-08-04T11:52:53.595Z,1.02
2022-08-04T11:55:22.540Z,1.15
2022-08-04T11:57:54.020Z,1.23
2022-08-04T12:00:22.410Z,1.13
2022-08-04T12:03:20.627Z,1.02
2022-08-04T12:06:06.724Z,1.23
2022-08-04T12:08:51.742Z,1.33
2022-08-04T12:11:51.079Z,1.40
2022-08-04T12:14:51.784Z,1.50
2022-08-04T12:17:52.457Z,1.50
2022-08-04T12:20:35.607Z,1.45
2022-08-04T12:23:14.956Z,1.60
2022-08-04T12:25:46.595Z,1.50
2022-08-04T12:28:22.397Z,1.50
2022-08-04T12:31:04.380Z,1.50
2022-08-04T12:34:04.841Z,1.80
2022-08-04T12:36:43.183Z,1.65
2022-08-04T12:39:15.451Z,2.00
2022-08-04T12:42:06.448Z,1.75
2022-08-04T12:44:39.111Z,2.00
2022-08-04T12:47:36.157Z,3.88
2022-08-04T12:50:04.208Z,1.88
2022-08-04T12:55:34.379Z,2.83
2022-08-04T12:58:03.892Z,2.20
2022-08-04T13:00:40.729Z,1.95
2022-08-04T13:03:17.803Z,1.88
2022-08-04T13:05:45.457Z,2.03
2022-08-04T13:08:13.140Z,1.90
2022-08-04T13:10:43.509Z,1.90
2022-08-04T13:13:19.136Z,1.90
2022-08-04T13:15:57.595Z,1.50
2022-08-04T13:18:36.708Z,2.15
2022-08-04T13:21:21.450Z,1.70
2022-08-04T13:24:20.252Z,1.92
2022-08-04T13:27:08.839Z,1.80
2022-08-04T13:30:25.291Z,1.98
2022-08-04T13:32:32.145Z,1.83
2022-08-04T13:35:01.677Z,1.60
2022-08-04T13:37:35.922Z,1.50
2022-08-04T13:40:05.068Z,1.92
2022-08-04T13:42:34.181Z,1.75
2022-08-04T13:45:03.940Z,2.13
2022-08-04T13:47:34.090Z,1.90
2022-08-04T13:50:12.877Z,1.83
2022-08-04T13:52:41.785Z,1.63
2022-08-04T13:55:18.996Z,2.00
2022-08-04T13:57:49.832Z,1.90
2022-08-04T14:00:17.034Z,1.80
2022-08-04T14:03:02.592Z,2.10
2022-08-04T14:05:36.745Z,1.88
2022-08-04T14:08:26.382Z,1.95
2022-08-04T14:10:56.947Z,1.80
2022-08-04T14:13:41.434Z,2.25
2022-08-04T14:16:21.702Z,1.90
2022-08-04T14:18:59.000Z,2.15
2022-08-04T14:23:54.255Z,2.10
2022-08-04T14:26:32.609Z,2.22
2022-08-04T14:29:26.457Z,2.30
2022-08-04T14:32:02.025Z,2.60
2022-08-04T14:34:30.553Z,2.83
2022-08-04T14:37:16.501Z,2.83
2022-08-04T14:40:18.788Z,2.92
2022-08-04T14:42:41.604Z,3.17
2022-08-04T14:45:08.804Z,3.05
2022-08-04T14:47:40.739Z,3.00
2022-08-04T14:50:09.375Z,3.17
2022-08-04T14:52:36.935Z,3.00
2022-08-04T14:55:30.552Z,2.83
2022-08-04T14:58:37.892Z,2.97
2022-08-04T15:00:44.360Z,2.63
2022-08-04T15:03:11.289Z,2.63
2022-08-04T15:05:54.813Z,2.70
2022-08-04T15:08:29.060Z,3.28
2022-08-04T15:10:59.600Z,3.88
2022-08-04T15:13:26.702Z,2.92
2022-08-04T15:16:07.752Z,3.45
2022-08-04T15:18:37.116Z,2.92
2022-08-04T15:21:05.644Z,3.00
2022-08-04T15:23:39.597Z,3.08
2022-08-04T15:26:16.891Z,2.78
2022-08-04T15:28:50.120Z,2.45
2022-08-04T15:32:05.669Z,3.08
2022-08-04T15:34:10.399Z,2.58
2022-08-04T15:36:57.858Z,2.80
2022-08-04T15:42:16.168Z,3.63
2022-08-04T15:45:03.293Z,2.67
2022-08-04T15:47:29.874Z,3.03
2022-08-04T15:50:10.903Z,3.13
2022-08-04T15:53:01.373Z,3.10
2022-08-04T15:55:43.198Z,2.85
2022-08-04T15:58:13.270Z,3.28
2022-08-04T16:00:54.058Z,3.47
2022-08-04T16:03:58.106Z,3.25
2022-08-04T16:06:22.217Z,3.30
2022-08-04T16:08:57.248Z,3.10
2022-08-04T16:11:32.603Z,2.80
2022-08-04T16:13:59.640Z,3.10
2022-08-04T16:16:30.674Z,2.97
2022-08-04T16:19:46.209Z,3.08
2022-08-04T16:22:32.947Z,3.60
2022-08-04T16:25:00.836Z,3.10
2022-08-04T16:27:42.620Z,3.40
2022-08-04T16:30:14.875Z,3.10
2022-08-04T16:32:44.513Z,3.42
2022-08-04T16:35:28.443Z,3.28
2022-08-04T16:38:12.941Z,2.70
2022-08-04T16:40:44.122Z,2.78
2022-08-04T16:43:13.190Z,3.40
2022-08-04T16:45:44.399Z,3.75
2022-08-04T16:48:11.919Z,3.08
2022-08-04T16:50:53.563Z,3.13
2022-08-04T16:53:51.513Z,2.97
2022-08-04T16:56:10.168Z,2.90
2022-08-04T16:58:37.126Z,2.63
2022-08-04T17:01:32.367Z,3.00
2022-08-04T17:04:04.773Z,3.25
2022-08-04T17:06:36.876Z,3.10
2022-08-04T17:09:11.055Z,3.40
2022-08-04T17:11:37.703Z,2.72
2022-08-04T17:14:06.096Z,2.95
2022-08-04T17:16:35.319Z,3.28
2022-08-04T17:19:02.031Z,3.25
2022-08-04T17:21:31.469Z,2.60
2022-08-04T17:24:16.209Z,2.80
2022-08-04T17:26:54.058Z,2.83
2022-08-04T17:29:43.556Z,2.60
2022-08-04T17:32:20.779Z,3.35
2022-08-04T17:34:57.479Z,2.78
2022-08-04T17:37:39.536Z,2.75
2022-08-04T17:40:11.443Z,2.75
2022-08-04T17:42:39.854Z,2.53
2022-08-04T17:47:59.160Z,2.58
2022-08-04T17:50:31.320Z,2.72
2022-08-04T17:52:59.697Z,2.17
2022-08-04T17:55:47.524Z,2.10
2022-08-04T17:58:22.253Z,2.30
2022-08-04T18:01:16.579Z,2.35
2022-08-04T18:06:22.830Z,2.30
2022-08-04T18:08:58.130Z,2.33
2022-08-04T18:11:29.663Z,2.00
2022-08-04T18:14:08.400Z,2.20
2022-08-04T18:16:43.856Z,2.08
2022-08-04T18:19:15.511Z,2.33
2022-08-04T18:22:00.508Z,2.03
2022-08-04T18:24:35.915Z,2.10
2022-08-04T18:27:23.807Z,2.20
2022-08-04T18:30:32.549Z,2.15
2022-08-04T18:32:51.301Z,2.20
2022-08-04T18:35:24.910Z,1.90
2022-08-04T18:38:23.789Z,2.30
2022-08-04T18:40:53.017Z,2.15
2022-08-04T18:43:28.135Z,1.95
2022-08-04T18:45:57.584Z,2.28
2022-08-04T18:48:36.115Z,4.03
2022-08-04T18:51:10.771Z,2.15
2022-08-04T18:53:55.078Z,2.25
2022-08-04T18:56:30.088Z,2.20
2022-08-04T18:59:03.708Z,2.33
2022-08-04T19:02:13.359Z,2.00
2022-08-04T19:04:33.165Z,2.13
2022-08-04T19:12:26.618Z,1.98
2022-08-04T19:14:58.201Z,1.80
2022-08-04T19:17:57.125Z,2.42
2022-08-04T19:20:24.230Z,2.42
2022-08-04T19:24:29.423Z,2.22
2022-08-04T19:25:58.856Z,2.30
2022-08-04T19:28:29.831Z,2.25
2022-08-04T19:30:57.877Z,2.10
2022-08-04T19:33:25.321Z,2.25
2022-08-04T19:35:52.347Z,2.55
2022-08-04T19:38:20.572Z,2.35
2022-08-04T19:43:20.695Z,2.50
2022-08-04T19:45:50.323Z,2.33
2022-08-04T19:48:19.473Z,2.40
2022-08-04T19:50:46.696Z,2.65
2022-08-04T19:53:18.849Z,2.33
2022-08-04T19:55:49.422Z,2.47
2022-08-04T19:58:17.750Z,2.50
2022-08-04T20:00:44.858Z,2.40
2022-08-04T20:03:20.034Z,2.35
2022-08-04T20:08:35.118Z,3.00
2022-08-04T20:11:01.615Z,2.38
2022-08-04T20:13:37.142Z,2.53
2022-08-04T20:16:05.022Z,3.00
2022-08-04T20:18:56.680Z,2.78
2022-08-04T20:24:40.743Z,3.42
2022-08-04T20:26:58.909Z,3.55
2022-08-04T20:29:40.460Z,4.13
2022-08-04T20:32:08.669Z,4.10
2022-08-04T20:34:35.327Z,4.65
2022-08-04T20:37:02.995Z,5.40
2022-08-04T20:39:30.765Z,5.37
2022-08-04T20:41:57.842Z,5.88
2022-08-04T20:44:24.515Z,6.38
2022-08-04T20:46:51.194Z,6.13
2022-08-04T20:49:17.795Z,7.22
2022-08-04T20:51:44.420Z,7.93
2022-08-04T20:54:16.925Z,7.25
2022-08-04T20:56:53.020Z,7.65
2022-08-04T20:59:20.814Z,7.80
2022-08-04T21:04:32.849Z,7.55
2022-08-04T21:07:01.209Z,7.50
2022-08-04T21:09:38.288Z,8.30
2022-08-04T21:12:10.986Z,7.85
2022-08-04T21:14:56.679Z,8.35
2022-08-04T21:20:12.797Z,8.80
2022-08-04T21:22:40.791Z,8.75
2022-08-04T21:25:14.522Z,9.50
2022-08-04T21:27:43.412Z,9.98
2022-08-04T21:30:24.225Z,9.20
2022-08-04T21:32:53.415Z,9.68
2022-08-04T21:35:22.057Z,9.02
2022-08-04T21:38:04.100Z,9.40
2022-08-04T21:40:50.844Z,8.30
2022-08-04T21:43:20.756Z,9.32
2022-08-04T21:45:50.382Z,9.40
2022-08-04T21:48:17.160Z,8.55
2022-08-04T21:50:44.155Z,8.45
2022-08-04T21:53:19.780Z,7.80
2022-08-04T21:56:05.046Z,8.02
2022-08-04T21:58:34.879Z,7.60
2022-08-04T22:01:05.959Z,8.68
2022-08-04T22:03:51.923Z,7.47
2022-08-04T22:06:28.524Z,7.40
2022-08-04T22:08:56.204Z,6.85
2022-08-04T22:11:49.041Z,7.03
2022-08-04T22:14:15.536Z,6.68
2022-08-04T22:16:42.463Z,6.70
2022-08-04T22:19:10.760Z,6.03
2022-08-04T22:21:39.100Z,6.32
2022-08-04T22:24:14.008Z,6.03
2022-08-04T22:26:40.909Z,6.35
2022-08-04T22:29:07.398Z,6.03
2022-08-04T22:31:56.201Z,5.82
2022-08-04T22:34:24.691Z,5.55
2022-08-04T22:36:51.344Z,5.70
2022-08-04T22:39:20.228Z,5.30
2022-08-04T22:42:04.089Z,5.70
2022-08-04T22:44:32.309Z,5.07
2022-08-04T22:47:00.259Z,5.13
2022-08-04T22:49:31.282Z,4.65
2022-08-04T22:51:58.135Z,4.80
2022-08-04T22:54:25.928Z,4.70
2022-08-04T22:56:55.075Z,4.45
2022-08-04T22:59:23.993Z,4.15
2022-08-04T23:01:59.102Z,4.33
2022-08-04T23:04:29.407Z,4.00
2022-08-04T23:06:56.129Z,3.65
2022-08-04T23:09:27.003Z,3.67
2022-08-04T23:12:27.165Z,3.80
2022-08-04T23:14:58.213Z,3.70
2022-08-04T23:17:27.272Z,3.90
2022-08-04T23:19:57.624Z,3.45
2022-08-04T23:22:41.763Z,3.30
2022-08-04T23:25:16.476Z,3.42
2022-08-04T23:27:50.578Z,3.40
2022-08-04T23:30:20.870Z,3.30
2022-08-04T23:32:48.690Z,3.10
2022-08-04T23:35:15.406Z,3.22
2022-08-04T23:37:56.274Z,3.22
2022-08-04T23:40:32.378Z,2.92
2022-08-04T23:43:00.444Z,3.13
2022-08-04T23:46:06.865Z,2.78
2022-08-04T23:48:19.279Z,2.70
2022-08-04T23:50:47.763Z,2.50
2022-08-04T23:53:18.702Z,2.72
2022-08-04T23:55:49.335Z,2.92
2022-08-04T23:58:18.768Z,2.70
